Terminal Aerodrome Forecast
Issued by NWS

Home | Current Version | Previous Version | Text Only | Print | Product List | Glossary On
Versions: 1 2 3 4 5 6 7 8 9 10 11 12 13 14 15
000
FTUS45 KTFX 250531
TAFGTF
TAF
KGTF 250531Z 2506/2606 33008KT P6SM VCSH SCT020 OVC040
      TEMPO 2506/2508 -SHRA BKN020
     FM250900 25008KT P6SM SCT025 BKN070
     FM252000 02007KT P6SM VCSH SCT040 BKN080
     FM260200 05007KT P6SM SCT080 BKN150=

USA.gov is the U.S. government's official web portal to all federal, state and local government web resources and services.